createdAt,value
2023-01-13T00:03:22.429Z,71.96
2023-01-13T00:25:07.112Z,72.10
2023-01-13T00:46:50.762Z,72.62
2023-01-13T01:08:35.728Z,72.77
2023-01-13T01:30:19.807Z,72.95
2023-01-13T01:52:08.234Z,72.11
2023-01-13T02:13:51.361Z,71.50
2023-01-13T02:35:40.190Z,71.25
2023-01-13T02:57:26.313Z,70.62
2023-01-13T03:19:20.073Z,70.10
2023-01-13T03:41:07.601Z,71.08
2023-01-13T04:02:55.960Z,70.73
2023-01-13T04:24:39.344Z,70.93
2023-01-13T04:46:22.919Z,70.74
2023-01-13T05:08:06.636Z,70.35
2023-01-13T05:29:50.395Z,69.99
2023-01-13T05:51:33.915Z,69.82
2023-01-13T06:13:16.974Z,70.06
2023-01-13T06:35:09.713Z,69.91
2023-01-13T06:56:52.746Z,70.15
2023-01-13T07:18:37.792Z,70.33
2023-01-13T07:40:20.991Z,70.59
2023-01-13T08:02:04.582Z,70.13
2023-01-13T08:23:47.922Z,70.18
2023-01-13T08:45:31.524Z,69.07
2023-01-13T09:07:15.251Z,68.81
2023-01-13T09:28:58.346Z,70.41
2023-01-13T09:50:54.128Z,72.08
2023-01-13T10:12:55.171Z,71.78
2023-01-13T10:34:48.546Z,70.57
2023-01-13T10:56:34.108Z,67.88
2023-01-13T11:18:24.414Z,66.33
2023-01-13T11:40:16.457Z,66.20
2023-01-13T12:02:14.375Z,65.30
2023-01-13T12:24:08.807Z,65.85
2023-01-13T12:45:52.076Z,66.11
2023-01-13T13:07:42.313Z,67.36
2023-01-13T13:29:50.041Z,66.58
2023-01-13T13:51:40.298Z,66.64
2023-01-13T14:13:25.370Z,66.79
2023-01-13T14:35:15.412Z,67.08
2023-01-13T14:57:14.301Z,69.94
2023-01-13T15:18:58.679Z,74.71
2023-01-13T15:40:41.449Z,78.57
2023-01-13T16:02:24.865Z,80.49
2023-01-13T16:24:08.261Z,80.86
2023-01-13T16:45:51.599Z,81.39
2023-01-13T17:07:35.233Z,81.82
2023-01-13T17:29:24.499Z,82.32
2023-01-13T17:51:12.575Z,81.60
2023-01-13T18:12:55.768Z,79.66
2023-01-13T18:34:39.665Z,79.99
2023-01-13T18:56:22.881Z,80.22
2023-01-13T19:18:07.106Z,80.25
2023-01-13T19:39:51.035Z,80.42
2023-01-13T20:01:37.420Z,79.64
2023-01-13T20:23:20.603Z,78.78
2023-01-13T20:45:05.140Z,77.32
2023-01-13T21:06:49.122Z,76.21
2023-01-13T21:28:33.910Z,74.69
2023-01-13T21:50:19.105Z,73.71
2023-01-13T22:12:02.167Z,73.16
2023-01-13T22:33:46.490Z,72.26
2023-01-13T22:55:31.815Z,72.29
2023-01-13T23:17:15.204Z,70.75
2023-01-13T23:38:59.660Z,70.56
